Time;durP1;ratioP1;P1;durP2;ratioP2;P2;SDS_P1;SDS_P2;PMS_P1;PMS_P2;Temp;Humidity;BMP_temperature;BMP_pressure;BME280_temperature;BME280_humidity;BME280_pressure;Samples;Min_cycle;Max_cycle;Signal;HPM_P1;HPM_P2
2021/05/17 00:01:47;;;;;;;4.10;3.40;;;10.30;99.90;;;;;;4920042;29;20224;-70
2021/05/17 00:04:14;;;;;;;3.80;3.50;;;10.30;99.90;;;;;;4934811;29;20224;-70
2021/05/17 00:06:40;;;;;;;3.50;3.23;;;10.20;99.90;;;;;;4920725;29;20421;-69
2021/05/17 00:09:06;;;;;;;3.60;3.30;;;10.20;99.90;;;;;;4928396;29;20433;-70
2021/05/17 00:11:31;;;;;;;2.83;2.60;;;10.20;99.90;;;;;;4939293;29;20181;-70
2021/05/17 00:13:57;;;;;;;3.90;2.90;;;10.20;99.90;;;;;;4939018;29;20847;-70
2021/05/17 00:16:23;;;;;;;3.67;3.37;;;10.30;99.90;;;;;;4938733;28;20243;-71
2021/05/17 00:18:49;;;;;;;2.40;2.30;;;10.40;99.90;;;;;;4937183;29;20185;-71
2021/05/17 00:21:15;;;;;;;4.00;2.27;;;10.50;99.90;;;;;;4938179;29;20205;-70
2021/05/17 00:23:41;;;;;;;4.47;2.60;;;10.50;99.90;;;;;;4938697;29;20431;-70
2021/05/17 00:26:07;;;;;;;2.53;2.33;;;10.50;99.90;;;;;;4938651;29;20248;-70
2021/05/17 00:28:32;;;;;;;2.30;2.10;;;10.60;99.90;;;;;;4938797;29;20268;-70
2021/05/17 00:30:58;;;;;;;2.63;1.80;;;10.70;99.90;;;;;;4937110;29;20189;-70
2021/05/17 00:33:24;;;;;;;2.80;2.17;;;10.80;99.90;;;;;;4938100;29;20414;-70
2021/05/17 00:35:50;;;;;;;2.53;2.00;;;10.90;99.90;;;;;;4938528;29;20193;-70
2021/05/17 00:38:18;;;;;;;2.53;2.10;;;10.90;99.90;;;;;;4938690;29;20222;-70
2021/05/17 00:40:44;;;;;;;2.40;2.20;;;11.00;99.90;;;;;;4936637;28;20438;-70
2021/05/17 00:43:10;;;;;;;2.13;2.03;;;11.10;99.90;;;;;;4938000;29;20464;-71
2021/05/17 00:45:36;;;;;;;2.70;2.50;;;11.10;99.90;;;;;;4938050;29;20436;-71
2021/05/17 00:48:02;;;;;;;2.03;1.93;;;11.10;99.90;;;;;;4938731;29;20755;-70
2021/05/17 00:50:28;;;;;;;2.23;1.77;;;11.10;99.90;;;;;;4938369;29;20178;-71
2021/05/17 00:52:55;;;;;;;2.43;2.27;;;11.20;99.90;;;;;;4936676;29;20439;-70
2021/05/17 00:55:22;;;;;;;2.20;2.00;;;11.20;99.90;;;;;;4938015;29;20461;-70
2021/05/17 00:57:48;;;;;;;3.47;2.47;;;11.10;99.90;;;;;;4938202;29;20815;-70
2021/05/17 01:00:21;;;;;;;2.27;2.03;;;11.10;99.90;;;;;;4937967;29;20418;-70
2021/05/17 01:02:47;;;;;;;2.37;2.17;;;11.10;99.90;;;;;;4951259;29;20971;-70
2021/05/17 01:05:13;;;;;;;2.50;2.30;;;11.00;99.90;;;;;;4938151;29;20442;-70
2021/05/17 01:07:45;;;;;;;2.73;2.07;;;11.10;99.90;;;;;;4938002;29;20179;-70
2021/05/17 01:10:14;;;;;;;3.27;2.40;;;11.10;99.90;;;;;;4938124;28;20461;-70
2021/05/17 01:12:43;;;;;;;2.50;2.30;;;11.10;99.90;;;;;;4936141;29;20450;-69
2021/05/17 01:15:09;;;;;;;4.10;2.17;;;11.20;99.90;;;;;;4941027;29;20457;-68
2021/05/17 01:17:36;;;;;;;2.10;2.00;;;11.20;99.90;;;;;;4938963;29;20419;-69
2021/05/17 01:20:10;;;;;;;2.60;2.40;;;11.20;99.90;;;;;;4937250;29;20449;-70
2021/05/17 01:25:21;;;;;;;4.73;2.27;;;11.30;99.90;;;;;;4938056;28;20474;-71
2021/05/17 01:27:48;;;;;;;3.97;3.67;;;11.30;99.90;;;;;;4937968;29;20422;-70
2021/05/17 01:30:15;;;;;;;3.03;2.73;;;11.30;99.90;;;;;;4937563;29;20428;-70
2021/05/17 01:32:42;;;;;;;3.90;2.47;;;11.30;99.90;;;;;;4920673;29;21015;-70
2021/05/17 01:35:10;;;;;;;2.70;2.50;;;11.30;99.90;;;;;;4918373;29;20427;-70
2021/05/17 01:37:38;;;;;;;2.73;2.53;;;11.30;99.90;;;;;;4918816;29;20419;-70
2021/05/17 01:40:05;;;;;;;3.17;2.77;;;11.30;99.90;;;;;;4924036;29;20415;-69
2021/05/17 01:42:31;;;;;;;3.70;3.40;;;11.30;99.90;;;;;;4919792;29;20474;-70
2021/05/17 01:45:01;;;;;;;3.60;2.40;;;11.20;99.90;;;;;;4918598;29;20936;-71
2021/05/17 01:47:29;;;;;;;2.87;2.60;;;11.20;99.90;;;;;;4918769;29;20908;-70
2021/05/17 01:49:57;;;;;;;2.70;2.50;;;11.20;99.90;;;;;;4918453;29;20798;-70
2021/05/17 01:52:25;;;;;;;3.47;2.70;;;11.30;99.90;;;;;;4919327;29;20478;-70
2021/05/17 01:54:52;;;;;;;3.07;2.77;;;11.30;99.90;;;;;;4918302;29;20442;-70
2021/05/17 01:57:19;;;;;;;3.47;2.40;;;11.30;99.90;;;;;;4918796;29;20446;-70
2021/05/17 01:59:45;;;;;;;2.90;2.70;;;11.30;99.90;;;;;;4918245;29;20453;-70
2021/05/17 02:02:10;;;;;;;3.93;3.00;;;11.40;99.90;;;;;;4917953;29;20467;-70
2021/05/17 02:04:37;;;;;;;3.67;2.77;;;11.40;99.90;;;;;;4918727;29;20207;-70
2021/05/17 02:07:03;;;;;;;3.17;2.70;;;11.40;99.90;;;;;;4918070;29;20167;-71
2021/05/17 02:09:32;;;;;;;2.93;2.73;;;11.40;99.90;;;;;;4917934;29;20470;-70
2021/05/17 02:11:58;;;;;;;4.30;3.20;;;11.40;99.90;;;;;;4917893;29;20782;-70
2021/05/17 02:14:25;;;;;;;4.50;3.80;;;11.50;99.90;;;;;;4933228;29;20451;-70
2021/05/17 02:16:51;;;;;;;4.13;3.72;;;11.40;99.90;;;;;;4917604;29;20510;-70
2021/05/17 02:19:23;;;;;;;4.10;3.27;;;11.40;99.90;;;;;;4917985;29;20502;-70
2021/05/17 02:21:49;;;;;;;4.30;2.90;;;11.30;99.90;;;;;;4916484;29;20462;-70
2021/05/17 02:24:15;;;;;;;4.40;3.90;;;11.30;99.90;;;;;;4918612;29;20761;-70
2021/05/17 02:26:41;;;;;;;5.00;3.70;;;11.20;99.90;;;;;;4916196;29;20183;-70
2021/05/17 02:29:07;;;;;;;3.60;3.27;;;11.10;99.90;;;;;;4917713;29;20427;-70
2021/05/17 02:31:33;;;;;;;3.53;3.23;;;11.20;99.90;;;;;;4917863;29;20407;-70
2021/05/17 02:34:01;;;;;;;4.00;3.60;;;11.20;99.90;;;;;;4917624;29;20509;-70
2021/05/17 02:36:27;;;;;;;3.87;3.57;;;11.20;99.90;;;;;;4918790;29;20479;-70
2021/05/17 02:38:53;;;;;;;4.33;3.50;;;11.20;99.90;;;;;;4918121;29;20416;-71
2021/05/17 02:41:22;;;;;;;4.30;3.90;;;11.20;99.90;;;;;;4917932;29;20533;-71
2021/05/17 02:43:48;;;;;;;4.63;4.20;;;11.20;99.90;;;;;;4916917;29;20171;-71
2021/05/17 02:46:15;;;;;;;4.43;4.03;;;11.20;99.90;;;;;;4918360;29;20463;-71
2021/05/17 02:48:42;;;;;;;4.23;3.47;;;11.20;99.90;;;;;;4917622;29;20768;-71
2021/05/17 02:51:11;;;;;;;4.10;3.50;;;11.30;99.90;;;;;;4917303;29;20889;-71
2021/05/17 02:53:37;;;;;;;3.50;3.03;;;11.30;99.90;;;;;;4917412;29;20411;-70
2021/05/17 02:56:13;;;;;;;3.70;3.40;;;11.30;99.90;;;;;;4921049;29;20962;-71
2021/05/17 02:58:40;;;;;;;4.33;3.30;;;11.40;99.90;;;;;;4936736;29;20201;-71
2021/05/17 03:01:08;;;;;;;4.00;3.30;;;11.40;99.90;;;;;;4936199;28;20402;-71
2021/05/17 03:03:55;;;;;;;4.50;3.30;;;11.50;99.90;;;;;;4936130;29;20409;-71
2021/05/17 03:06:33;;;;;;;3.70;3.30;;;11.50;99.90;;;;;;4935370;29;20429;-71
2021/05/17 03:09:03;;;;;;;3.10;2.80;;;11.50;99.90;;;;;;4917614;29;20458;-70
2021/05/17 03:11:29;;;;;;;5.17;3.10;;;11.60;99.90;;;;;;4917431;29;20470;-71
2021/05/17 03:13:57;;;;;;;3.40;2.90;;;11.60;99.90;;;;;;4916992;29;20415;-71
2021/05/17 03:16:25;;;;;;;3.20;2.90;;;11.60;99.90;;;;;;4917490;29;20928;-70
2021/05/17 03:18:53;;;;;;;4.03;3.40;;;11.60;99.90;;;;;;4918158;29;20439;-70
2021/05/17 03:21:21;;;;;;;3.30;3.03;;;11.60;99.90;;;;;;4917535;29;20491;-71
2021/05/17 03:23:48;;;;;;;4.40;3.20;;;11.50;99.90;;;;;;4917134;29;20438;-70
2021/05/17 03:26:16;;;;;;;3.10;2.80;;;11.60;99.90;;;;;;4917038;29;20434;-70
2021/05/17 03:28:42;;;;;;;3.60;3.30;;;11.60;99.90;;;;;;4918510;29;20415;-71
2021/05/17 03:31:07;;;;;;;3.70;3.40;;;11.60;99.90;;;;;;4917348;29;20976;-70
2021/05/17 03:33:34;;;;;;;3.70;3.37;;;11.60;99.90;;;;;;4917074;29;20286;-71
2021/05/17 03:35:59;;;;;;;4.60;4.10;;;11.60;99.90;;;;;;4917186;29;20282;-70
2021/05/17 03:38:25;;;;;;;4.20;3.50;;;11.60;99.90;;;;;;4917863;29;20454;-71
2021/05/17 03:40:51;;;;;;;3.63;3.33;;;11.60;99.90;;;;;;4936003;29;20171;-70
2021/05/17 03:43:16;;;;;;;3.53;3.23;;;11.60;99.90;;;;;;4935737;29;20296;-71
2021/05/17 03:45:42;;;;;;;3.57;3.27;;;11.60;99.90;;;;;;4950023;28;20229;-71
2021/05/17 03:48:07;;;;;;;3.73;3.30;;;11.60;99.90;;;;;;4926966;29;20632;-71
2021/05/17 03:50:33;;;;;;;2.80;2.60;;;11.50;99.90;;;;;;4921120;29;20186;-71
2021/05/17 03:52:58;;;;;;;3.57;3.27;;;11.50;99.90;;;;;;4935332;29;20190;-70
2021/05/17 03:55:24;;;;;;;3.70;3.10;;;11.60;99.90;;;;;;4935574;29;20222;-71
2021/05/17 03:57:50;;;;;;;3.13;2.93;;;11.60;99.90;;;;;;4939526;29;20179;-71
2021/05/17 04:00:16;;;;;;;3.60;3.30;;;11.50;99.90;;;;;;4933051;29;20190;-71
2021/05/17 04:02:43;;;;;;;3.43;3.13;;;11.60;99.90;;;;;;4936328;29;20556;-71
2021/05/17 04:15:38;;;;;;;3.57;2.80;;;11.60;99.90;;;;;;4923499;29;20524;-71
2021/05/17 04:18:04;;;;;;;3.40;3.10;;;11.60;99.90;;;;;;4940655;29;20414;-71
2021/05/17 04:20:29;;;;;;;4.40;2.97;;;11.60;99.90;;;;;;4938816;29;20189;-72
2021/05/17 04:22:55;;;;;;;3.37;3.07;;;11.60;99.90;;;;;;4922023;29;20548;-72
2021/05/17 04:25:20;;;;;;;2.87;2.67;;;11.60;99.90;;;;;;4919722;29;20278;-71
2021/05/17 04:27:46;;;;;;;3.70;3.30;;;11.60;99.90;;;;;;4932710;28;20225;-69
2021/05/17 04:30:12;;;;;;;4.60;3.83;;;11.70;99.90;;;;;;4937406;29;21093;-70
2021/05/17 04:32:37;;;;;;;3.67;3.10;;;11.70;99.90;;;;;;4928919;29;20652;-68
2021/05/17 04:35:04;;;;;;;3.27;3.07;;;11.70;99.90;;;;;;4942246;29;20206;-68
2021/05/17 04:37:30;;;;;;;3.50;3.20;;;11.70;99.90;;;;;;4938868;29;20190;-69
2021/05/17 04:39:55;;;;;;;3.90;2.80;;;11.80;99.90;;;;;;4938471;29;20414;-71
2021/05/17 04:42:21;;;;;;;3.57;3.27;;;11.80;99.90;;;;;;4933128;29;20221;-71
2021/05/17 04:44:46;;;;;;;3.10;2.90;;;11.80;99.90;;;;;;4938664;29;20213;-70
2021/05/17 04:47:12;;;;;;;3.53;3.23;;;11.80;99.90;;;;;;4937553;29;20186;-70
2021/05/17 04:49:38;;;;;;;5.20;2.90;;;11.80;99.90;;;;;;4938320;29;20178;-70
2021/05/17 04:52:04;;;;;;;3.77;2.83;;;11.80;99.90;;;;;;4933630;29;20231;-70
2021/05/17 04:54:29;;;;;;;4.27;3.00;;;11.90;99.90;;;;;;4947764;29;20226;-70
2021/05/17 04:56:55;;;;;;;3.13;2.93;;;11.80;99.90;;;;;;4953179;28;20190;-70
2021/05/17 04:59:20;;;;;;;2.90;2.70;;;11.80;99.90;;;;;;4932941;29;20250;-68
2021/05/17 05:01:46;;;;;;;3.17;2.87;;;11.90;99.90;;;;;;4934128;29;20209;-69
2021/05/17 05:04:11;;;;;;;3.00;2.80;;;11.90;99.90;;;;;;4931628;29;20181;-69
2021/05/17 05:06:37;;;;;;;2.97;2.77;;;11.90;99.90;;;;;;4933805;29;20656;-69
2021/05/17 05:09:03;;;;;;;3.00;2.70;;;12.00;99.90;;;;;;4918948;29;20738;-71
2021/05/17 05:11:28;;;;;;;5.33;3.03;;;12.00;99.90;;;;;;4919085;29;20160;-69
2021/05/17 05:13:54;;;;;;;2.80;2.60;;;12.10;99.90;;;;;;4919033;29;20438;-70
2021/05/17 05:16:19;;;;;;;3.40;2.97;;;12.10;99.90;;;;;;4927809;29;20800;-70
2021/05/17 05:18:45;;;;;;;3.70;3.40;;;12.20;99.90;;;;;;4918454;29;20419;-70
2021/05/17 05:21:12;;;;;;;4.30;3.23;;;12.20;99.90;;;;;;4918618;29;20182;-70
2021/05/17 05:23:37;;;;;;;3.43;3.13;;;12.20;99.90;;;;;;4917516;29;20641;-69
2021/05/17 05:26:26;;;;;;;3.80;3.20;;;12.20;99.90;;;;;;4920042;29;20462;-69
2021/05/17 05:31:27;;;;;;;3.67;3.00;;;12.30;99.90;;;;;;4925136;29;20438;-70
2021/05/17 05:33:53;;;;;;;4.30;2.87;;;12.30;99.90;;;;;;4918490;29;20419;-69
2021/05/17 05:36:18;;;;;;;3.43;2.60;;;12.40;99.90;;;;;;4919057;29;20493;-70
2021/05/17 05:38:44;;;;;;;3.33;2.70;;;12.40;99.90;;;;;;4918685;29;20423;-70
2021/05/17 05:41:09;;;;;;;2.90;2.50;;;12.40;99.90;;;;;;4919608;29;20299;-70
2021/05/17 05:43:35;;;;;;;3.67;2.50;;;12.40;99.90;;;;;;4918712;29;20198;-69
2021/05/17 05:46:01;;;;;;;2.43;2.30;;;12.40;99.90;;;;;;4918941;29;20202;-70
2021/05/17 05:48:26;;;;;;;4.90;2.80;;;12.40;99.90;;;;;;4926225;29;20195;-70
2021/05/17 05:50:52;;;;;;;4.33;3.20;;;12.50;99.90;;;;;;4942609;29;20430;-70
2021/05/17 05:53:18;;;;;;;3.33;3.03;;;12.40;99.90;;;;;;4950126;28;20275;-69
2021/05/17 05:55:45;;;;;;;3.23;2.50;;;12.40;99.90;;;;;;4951140;29;20470;-69
2021/05/17 05:58:12;;;;;;;3.20;2.90;;;12.40;99.90;;;;;;4937563;29;20912;-69
2021/05/17 06:00:37;;;;;;;2.97;2.77;;;12.30;99.90;;;;;;4933589;29;20463;-69
2021/05/17 06:03:05;;;;;;;3.20;2.90;;;12.30;99.90;;;;;;4918907;29;20960;-69
2021/05/17 06:05:30;;;;;;;3.90;3.27;;;12.40;99.90;;;;;;4919882;29;20285;-69
2021/05/17 06:08:00;;;;;;;3.17;2.50;;;12.40;99.90;;;;;;4918256;29;20834;-69
2021/05/17 06:10:26;;;;;;;4.80;3.20;;;12.40;99.90;;;;;;4918224;29;20542;-69
2021/05/17 06:12:52;;;;;;;3.33;3.00;;;12.50;99.90;;;;;;4929608;29;20441;-70
2021/05/17 06:15:19;;;;;;;3.40;3.07;;;12.50;99.90;;;;;;4936573;29;20449;-69
2021/05/17 06:17:48;;;;;;;4.30;3.13;;;12.50;99.90;;;;;;4936452;29;20426;-69
2021/05/17 06:20:15;;;;;;;2.87;2.57;;;12.50;99.90;;;;;;4936090;28;20446;-70
2021/05/17 06:22:42;;;;;;;4.53;3.00;;;12.60;99.90;;;;;;4935186;29;20513;-70
2021/05/17 06:25:12;;;;;;;2.93;2.73;;;12.60;99.90;;;;;;4936767;29;20816;-70
2021/05/17 06:27:38;;;;;;;3.00;2.80;;;12.70;99.90;;;;;;4936736;29;20463;-70
2021/05/17 06:30:08;;;;;;;4.20;2.80;;;12.80;99.90;;;;;;4936638;29;20419;-69
2021/05/17 06:32:36;;;;;;;2.97;2.50;;;12.90;99.90;;;;;;4931420;29;20453;-69
2021/05/17 06:35:07;;;;;;;3.00;2.77;;;12.90;99.90;;;;;;4916734;29;20494;-70
2021/05/17 06:37:33;;;;;;;5.50;2.67;;;13.00;99.90;;;;;;4917840;29;20478;-70
2021/05/17 06:39:59;;;;;;;3.13;2.93;;;12.90;99.90;;;;;;4917459;29;20423;-69
2021/05/17 06:42:25;;;;;;;2.90;2.70;;;13.00;99.90;;;;;;4917369;29;20626;-70
2021/05/17 06:44:50;;;;;;;2.83;2.60;;;13.10;99.90;;;;;;4933094;29;20206;-69
2021/05/17 06:47:17;;;;;;;5.13;2.87;;;13.00;99.90;;;;;;4917599;29;20881;-70
2021/05/17 06:49:43;;;;;;;2.90;2.67;;;13.10;99.90;;;;;;4920559;29;20174;-69
2021/05/17 06:52:12;;;;;;;3.90;2.67;;;13.10;99.90;;;;;;4936751;29;20446;-69
2021/05/17 06:54:38;;;;;;;3.70;3.07;;;13.20;99.90;;;;;;4934452;29;20525;-69
2021/05/17 06:57:21;;;;;;;3.10;2.80;;;13.20;99.90;;;;;;4951351;29;20512;-69
2021/05/17 06:59:54;;;;;;;3.23;2.37;;;13.20;99.90;;;;;;4936324;29;20504;-69
2021/05/17 07:02:21;;;;;;;5.33;3.13;;;13.20;99.90;;;;;;4936084;28;20460;-70
2021/05/17 07:04:49;;;;;;;4.60;2.60;;;13.30;99.90;;;;;;4930730;29;20786;-69
2021/05/17 07:07:44;;;;;;;3.67;2.67;;;13.30;99.90;;;;;;4917692;29;20856;-70
2021/05/17 07:12:55;;;;;;;3.80;3.17;;;13.40;99.90;;;;;;4917461;29;20919;-70
2021/05/17 07:15:21;;;;;;;6.93;2.70;;;13.50;99.90;;;;;;4918015;29;20463;-70
2021/05/17 07:17:47;;;;;;;2.87;2.57;;;13.50;99.90;;;;;;4917042;29;20261;-69
2021/05/17 07:20:14;;;;;;;3.20;2.70;;;13.50;99.90;;;;;;4916160;29;20429;-70
2021/05/17 07:25:24;;;;;;;2.93;2.53;;;13.70;99.90;;;;;;4917085;29;20470;-69
2021/05/17 07:27:50;;;;;;;4.63;2.83;;;13.80;99.90;;;;;;4935688;28;20446;-70
2021/05/17 07:30:17;;;;;;;5.23;2.47;;;13.80;99.90;;;;;;4937531;29;20264;-69
2021/05/17 07:32:42;;;;;;;2.80;2.57;;;13.90;99.90;;;;;;4939431;29;20966;-69
2021/05/17 07:35:08;;;;;;;2.80;2.60;;;13.80;99.90;;;;;;4939326;29;20441;-70
2021/05/17 07:37:34;;;;;;;5.67;3.20;;;13.70;99.90;;;;;;4938275;29;20187;-69
2021/05/17 07:40:00;;;;;;;5.17;2.80;;;13.50;99.90;;;;;;4954682;29;20418;-70
2021/05/17 07:42:25;;;;;;;4.10;3.20;;;13.50;99.90;;;;;;4939710;29;20205;-69
2021/05/17 07:44:51;;;;;;;3.17;2.63;;;13.50;99.90;;;;;;4939591;29;20189;-69
2021/05/17 07:47:17;;;;;;;4.37;2.53;;;13.60;99.90;;;;;;4938346;28;20186;-69
2021/05/17 07:49:44;;;;;;;2.70;2.50;;;13.80;99.90;;;;;;4937127;29;20258;-70
2021/05/17 07:52:10;;;;;;;2.20;2.10;;;13.80;99.90;;;;;;4921901;29;20638;-68
2021/05/17 07:54:37;;;;;;;3.37;2.40;;;13.90;99.90;;;;;;4924997;29;20439;-67
2021/05/17 07:57:04;;;;;;;4.00;2.60;;;13.80;99.90;;;;;;4920216;29;20423;-70
2021/05/17 07:59:32;;;;;;;4.70;2.63;;;13.80;99.90;;;;;;4920361;29;20462;-70
2021/05/17 08:01:58;;;;;;;5.60;3.20;;;13.60;99.90;;;;;;4921174;29;20462;-69
2021/05/17 08:04:24;;;;;;;3.60;2.87;;;13.80;99.90;;;;;;4929477;29;20514;-71
2021/05/17 08:06:51;;;;;;;3.10;2.80;;;13.80;99.90;;;;;;4920291;29;20549;-70
2021/05/17 08:09:16;;;;;;;4.03;2.40;;;14.00;99.90;;;;;;4935246;29;20415;-70
2021/05/17 08:11:44;;;;;;;3.67;2.70;;;14.00;99.90;;;;;;4920049;29;20927;-70
2021/05/17 08:14:10;;;;;;;3.23;2.70;;;14.10;99.90;;;;;;4919712;29;20889;-70
2021/05/17 08:16:35;;;;;;;3.70;2.80;;;14.20;99.90;;;;;;4920653;29;20443;-69
2021/05/17 08:19:01;;;;;;;3.50;2.77;;;14.20;99.90;;;;;;4925653;29;20414;-68
2021/05/17 08:21:27;;;;;;;4.40;2.97;;;14.30;99.90;;;;;;4921334;29;20626;-69
2021/05/17 08:23:54;;;;;;;3.23;2.90;;;14.20;99.90;;;;;;4920060;29;20175;-69
2021/05/17 08:26:20;;;;;;;7.77;2.90;;;14.30;99.90;;;;;;4920907;29;20612;-69
2021/05/17 08:28:45;;;;;;;3.10;2.50;;;14.50;99.90;;;;;;4919862;29;20418;-69
2021/05/17 08:31:14;;;;;;;2.43;2.07;;;14.70;99.90;;;;;;4920106;29;20187;-71
2021/05/17 08:33:40;;;;;;;2.30;2.10;;;14.90;99.90;;;;;;4919483;29;20644;-70
2021/05/17 08:36:06;;;;;;;2.60;1.97;;;15.00;99.90;;;;;;4920669;29;20441;-71
2021/05/17 08:38:31;;;;;;;2.30;2.10;;;15.30;99.90;;;;;;4919966;29;20521;-70
2021/05/17 08:40:57;;;;;;;2.80;1.90;;;15.40;99.90;;;;;;4919520;29;20608;-69
2021/05/17 08:43:23;;;;;;;1.90;1.37;;;15.20;99.90;;;;;;4922096;29;20199;-69
2021/05/17 08:45:49;;;;;;;3.83;1.67;;;15.20;99.90;;;;;;4921424;29;20203;-70
2021/05/17 08:48:14;;;;;;;2.17;1.60;;;15.10;99.90;;;;;;4922340;29;20506;-70
2021/05/17 08:50:40;;;;;;;5.97;1.93;;;15.10;99.90;;;;;;4930380;29;20536;-70
2021/05/17 08:53:08;;;;;;;1.77;1.67;;;15.00;99.90;;;;;;4938737;29;20609;-68
2021/05/17 08:55:33;;;;;;;3.60;2.37;;;14.90;99.90;;;;;;4939157;29;20513;-71
2021/05/17 08:57:59;;;;;;;2.93;1.90;;;14.90;99.90;;;;;;4937900;29;20429;-71
2021/05/17 09:00:24;;;;;;;3.27;1.90;;;14.90;99.90;;;;;;4940224;29;20182;-69
2021/05/17 09:02:52;;;;;;;1.90;1.57;;;15.00;99.90;;;;;;4929148;29;20209;-69
2021/05/17 09:05:18;;;;;;;2.10;1.50;;;14.90;99.90;;;;;;4940608;28;20202;-69
2021/05/17 09:07:49;;;;;;;5.03;1.90;;;14.80;99.90;;;;;;4939596;29;20469;-69
2021/05/17 09:10:17;;;;;;;2.97;1.37;;;14.70;99.90;;;;;;4921592;29;20824;-69
2021/05/17 09:13:10;;;;;;;2.80;2.27;;;14.60;99.90;;;;;;4921213;29;20446;-69
2021/05/17 09:15:40;;;;;;;2.70;1.70;;;14.60;99.90;;;;;;4919740;29;20450;-69
2021/05/17 09:18:14;;;;;;;2.10;1.37;;;14.50;99.90;;;;;;4921087;29;20459;-70
2021/05/17 09:20:42;;;;;;;2.23;1.40;;;14.30;99.90;;;;;;4924792;29;20438;-69
2021/05/17 09:23:15;;;;;;;1.50;1.40;;;14.30;99.90;;;;;;4927985;29;20463;-70
2021/05/17 09:26:01;;;;;;;2.07;1.80;;;14.30;99.90;;;;;;4930854;29;20431;-70
2021/05/17 09:28:31;;;;;;;2.50;1.43;;;14.30;99.90;;;;;;4926812;29;20415;-69
2021/05/17 09:31:03;;;;;;;1.83;1.33;;;14.40;99.90;;;;;;4923593;29;20471;-70
2021/05/17 09:33:42;;;;;;;2.30;1.50;;;14.40;99.90;;;;;;4919650;29;20418;-70
2021/05/17 09:36:26;;;;;;;4.70;2.00;;;14.50;99.90;;;;;;4922613;29;20434;-68
2021/05/17 09:38:59;;;;;;;1.20;1.10;;;14.80;99.90;;;;;;4939052;29;20418;-70
2021/05/17 09:41:43;;;;;;;1.30;1.20;;;14.80;99.90;;;;;;4938814;29;20391;-70
2021/05/17 09:44:11;;;;;;;2.80;1.47;;;14.70;99.90;;;;;;4938723;29;20412;-70
2021/05/17 09:47:14;;;;;;;3.13;1.80;;;14.80;99.90;;;;;;4934233;28;20528;-69
2021/05/17 09:49:50;;;;;;;1.43;1.33;;;14.90;99.90;;;;;;4920978;29;20414;-69
2021/05/17 09:52:31;;;;;;;2.70;1.60;;;14.90;99.90;;;;;;4937146;29;20406;-69
2021/05/17 09:55:01;;;;;;;1.77;1.43;;;14.90;99.90;;;;;;4937528;29;20437;-71
2021/05/17 09:57:36;;;;;;;3.00;1.70;;;15.00;99.90;;;;;;4936235;29;20454;-70
2021/05/17 10:00:09;;;;;;;1.93;1.67;;;15.10;99.90;;;;;;4937913;29;20593;-70
2021/05/17 10:02:40;;;;;;;3.10;2.07;;;15.30;99.90;;;;;;4936788;29;20450;-70
2021/05/17 10:05:15;;;;;;;4.43;2.00;;;15.40;99.90;;;;;;4937028;29;20796;-69
2021/05/17 10:07:44;;;;;;;5.27;2.07;;;15.70;99.90;;;;;;4933014;28;20434;-70
2021/05/17 10:10:11;;;;;;;2.60;2.40;;;15.90;99.90;;;;;;4918408;29;20434;-70
2021/05/17 10:12:38;;;;;;;2.57;2.00;;;16.00;99.90;;;;;;4918194;29;20423;-70
2021/05/17 10:15:06;;;;;;;2.70;1.90;;;16.00;99.10;;;;;;4917907;29;20879;-70
2021/05/17 10:17:39;;;;;;;2.03;1.83;;;16.00;99.00;;;;;;4925500;29;20867;-71
2021/05/17 10:20:08;;;;;;;2.30;1.70;;;16.10;98.90;;;;;;4919315;29;20509;-69
2021/05/17 10:22:34;;;;;;;2.10;1.40;;;16.20;99.20;;;;;;4932340;29;20494;-70
2021/05/17 10:25:04;;;;;;;6.93;2.00;;;16.30;99.30;;;;;;4918040;29;20430;-70
2021/05/17 10:27:31;;;;;;;5.33;1.97;;;16.50;99.10;;;;;;4918229;29;20498;-70
2021/05/17 10:30:01;;;;;;;1.90;1.70;;;16.30;98.70;;;;;;4918951;29;20470;-70
2021/05/17 10:33:09;;;;;;;2.60;1.77;;;16.20;98.90;;;;;;4917586;29;20421;-70
2021/05/17 10:35:47;;;;;;;2.40;2.00;;;16.10;99.20;;;;;;4864139;29;20985;-70
2021/05/17 10:38:13;;;;;;;3.20;1.80;;;16.00;99.90;;;;;;4867249;29;20569;-71
2021/05/17 10:40:41;;;;;;;2.53;1.63;;;16.00;99.90;;;;;;4859449;29;20810;-71
2021/05/17 10:43:14;;;;;;;1.40;1.30;;;16.10;99.90;;;;;;4859019;29;20473;-72
2021/05/17 10:48:35;;;;;;;6.33;1.97;;;16.50;98.70;;;;;;4866177;29;20447;-70
2021/05/17 10:51:17;;;;;;;2.30;1.90;;;16.30;98.10;;;;;;4864864;29;20426;-69
2021/05/17 10:53:53;;;;;;;9.73;2.77;;;16.10;98.80;;;;;;4859233;29;20469;-69
2021/05/17 10:56:55;;;;;;;1.90;1.60;;;15.90;99.90;;;;;;4872108;29;20420;-69
2021/05/17 11:02:30;;;;;;;2.13;1.43;;;14.10;99.90;;;;;;4859059;29;21001;-70
2021/05/17 11:04:59;;;;;;;1.83;1.73;;;13.70;99.90;;;;;;4876509;29;20441;-70
2021/05/17 11:07:28;;;;;;;1.70;1.60;;;13.40;99.90;;;;;;4939642;29;20446;-70
2021/05/17 11:10:08;;;;;;;2.00;1.77;;;13.40;99.90;;;;;;4940783;29;20501;-69
2021/05/17 11:12:37;;;;;;;2.50;1.70;;;13.40;99.90;;;;;;4939484;29;20441;-70
2021/05/17 11:15:12;;;;;;;1.93;1.53;;;13.40;99.90;;;;;;4942096;29;20876;-70
2021/05/17 11:17:50;;;;;;;2.57;2.03;;;13.50;99.90;;;;;;4924526;29;20792;-69
2021/05/17 11:20:44;;;;;;;3.00;2.30;;;13.70;99.90;;;;;;4921522;29;20419;-70
2021/05/17 11:23:28;;;;;;;7.03;2.20;;;13.70;99.90;;;;;;4921098;29;20509;-70
2021/05/17 11:26:04;;;;;;;3.43;2.60;;;13.90;99.90;;;;;;4921446;29;20426;-70
2021/05/17 11:28:47;;;;;;;2.67;2.33;;;13.90;99.90;;;;;;4921536;29;20430;-69
2021/05/17 11:31:43;;;;;;;;;;;;;;;;;;;;;
2021/05/17 11:34:02;;;;;;;2.30;2.10;;;14.00;99.90;;;;;;4919995;29;20883;-69
2021/05/17 11:36:36;;;;;;;2.00;1.83;;;14.00;99.90;;;;;;4921073;29;20410;-70
2021/05/17 11:39:11;;;;;;;2.10;2.00;;;13.80;99.90;;;;;;4938974;29;20919;-72
2021/05/17 11:41:38;;;;;;;4.17;2.03;;;13.80;99.90;;;;;;4939552;29;20898;-70
2021/05/17 11:44:08;;;;;;;2.37;1.70;;;13.90;99.90;;;;;;4939698;29;20433;-69
2021/05/17 11:46:37;;;;;;;3.47;2.77;;;14.00;99.90;;;;;;4954366;28;20504;-69
2021/05/17 11:49:04;;;;;;;2.30;2.10;;;14.10;99.90;;;;;;4938118;29;20429;-71
2021/05/17 11:51:30;;;;;;;3.30;2.20;;;14.20;99.90;;;;;;4922398;29;20423;-69
2021/05/17 11:53:56;;;;;;;2.90;2.30;;;14.50;99.90;;;;;;4920525;29;20762;-69
2021/05/17 11:56:36;;;;;;;3.13;1.63;;;14.60;99.90;;;;;;4921186;29;20463;-69
2021/05/17 11:59:07;;;;;;;3.63;2.57;;;14.70;99.90;;;;;;4921204;29;20182;-70
2021/05/17 12:01:33;;;;;;;1.93;1.57;;;14.90;99.90;;;;;;4920095;29;20509;-70
2021/05/17 12:04:11;;;;;;;2.10;1.30;;;14.90;99.90;;;;;;4930310;29;20505;-70
2021/05/17 12:06:41;;;;;;;3.67;2.10;;;14.90;99.90;;;;;;4937030;29;20173;-70
2021/05/17 12:09:07;;;;;;;2.30;1.50;;;15.00;99.90;;;;;;4920467;29;20482;-69
2021/05/17 12:11:32;;;;;;;1.10;1.00;;;15.10;99.90;;;;;;4920148;29;20905;-70
2021/05/17 12:14:06;;;;;;;1.70;1.60;;;15.00;99.90;;;;;;4920286;29;20175;-70
2021/05/17 12:16:32;;;;;;;3.47;1.37;;;15.00;99.90;;;;;;4919177;29;20198;-70
2021/05/17 12:19:03;;;;;;;3.63;1.10;;;15.00;99.90;;;;;;4935643;29;20425;-69
2021/05/17 12:21:33;;;;;;;2.73;1.20;;;15.00;99.90;;;;;;4942107;29;20174;-70
2021/05/17 12:23:58;;;;;;;1.43;1.00;;;14.90;99.90;;;;;;4942377;29;20406;-69
2021/05/17 12:26:24;;;;;;;1.97;1.40;;;14.80;99.90;;;;;;4938831;28;20438;-69
2021/05/17 12:28:57;;;;;;;1.20;1.10;;;14.60;99.90;;;;;;4938020;29;20344;-70
2021/05/17 12:31:26;;;;;;;5.53;2.03;;;14.30;99.90;;;;;;4939053;29;20151;-70
2021/05/17 12:33:51;;;;;;;5.07;1.77;;;14.30;99.90;;;;;;4938758;29;20409;-70
2021/05/17 12:36:17;;;;;;;2.63;1.70;;;14.20;99.90;;;;;;4939164;29;20422;-70
2021/05/17 12:38:46;;;;;;;2.63;2.30;;;13.80;99.90;;;;;;4952271;29;20648;-70
2021/05/17 12:41:32;;;;;;;5.30;1.90;;;13.90;99.90;;;;;;4938593;29;20186;-70
2021/05/17 12:43:58;;;;;;;3.22;1.90;;;13.90;99.90;;;;;;4938603;29;20412;-69
2021/05/17 12:46:28;;;;;;;4.10;1.90;;;14.00;99.90;;;;;;4938586;28;20199;-70
2021/05/17 12:48:55;;;;;;;3.37;2.43;;;14.00;99.90;;;;;;4938332;29;20155;-69
2021/05/17 12:51:22;;;;;;;3.17;2.30;;;13.90;99.90;;;;;;4922449;29;20618;-70
2021/05/17 12:53:49;;;;;;;2.20;2.10;;;14.00;99.90;;;;;;4919231;29;20829;-69
2021/05/17 12:56:35;;;;;;;2.53;1.80;;;13.90;99.90;;;;;;4919418;29;20435;-71
2021/05/17 12:59:14;;;;;;;8.90;3.27;;;13.80;99.90;;;;;;4919930;29;20403;-70
2021/05/17 13:01:40;;;;;;;2.33;2.13;;;13.80;99.90;;;;;;4920791;29;20431;-69
2021/05/17 13:04:08;;;;;;;2.23;2.13;;;13.90;99.90;;;;;;4929714;29;20457;-71
2021/05/17 13:06:34;;;;;;;3.23;2.40;;;13.90;99.90;;;;;;4938717;29;20422;-69
2021/05/17 13:09:07;;;;;;;2.60;2.40;;;14.00;99.90;;;;;;4937798;29;20422;-70
2021/05/17 13:11:40;;;;;;;2.33;1.93;;;14.10;99.90;;;;;;4928297;29;20561;-71
2021/05/17 13:14:18;;;;;;;3.87;2.63;;;14.20;99.90;;;;;;4933409;29;20788;-70
2021/05/17 13:16:49;;;;;;;3.00;2.70;;;14.20;99.90;;;;;;4918630;29;20529;-70
2021/05/17 13:30:40;;;;;;;5.87;3.60;;;14.10;99.90;;;;;;4934204;29;20425;-69
2021/05/17 13:33:06;;;;;;;4.87;4.37;;;14.00;99.90;;;;;;4925662;29;20492;-70
2021/05/17 13:35:32;;;;;;;4.65;4.10;;;13.90;99.90;;;;;;4922306;29;20429;-71